Aeroporto :
LOGIN :

Iscrizione | Disclaimer

   EN    FR    IT 

 










Sommario :    VFR   VFR Marginale   IFR   IFR Intensivo   IFR Molto Intensivo
Visibilità : 
Base nubi : 
>= 8 km
>= 3000ft
5 / 8 km
1000 / 3000 ft
1500m / 5 km
500 / 1000 ft
800 / 1500m
200 / 500 ft
< 800m
< 200 ft
Simboli :   Temporali  Nebbia  Neve Forte  Precipitazioni Forti  Vento > 20 kt
SIGMETs :   Varie  Temporali  Ghiacco  Turbolenza  Onda orograficha  Ceneri Vulcaniche







- Altitudine del aeroporto : 3 ft
- Codice IATA : LWR


EHLW - Leuuwarden Air Base

ULTIMO METAR :
  • 231925Z AUTO 05007KT 010V100 9999 BKN270 18/16 Q1025 BLU

METARs OBSOLETI :
  • 231855Z AUTO 06006KT 010V090 9999 NCD 18/16 Q1025 BLU
  • 231825Z AUTO 05007KT 010V070 9999 NCD 19/17 Q1025 BLU
  • 231755Z AUTO 04008KT 010V080 9999 BKN290 20/17 Q1024 BLU
  • 231725Z AUTO 04007KT 350V070 9999 OVC260 21/17 Q1024 BLU
  • 231655Z AUTO 01006KT 330V040 9999 OVC260 22/17 Q1025 BLU
  • 231625Z AUTO 33007KT 310V010 9999 OVC270 22/16 Q1025 BLU

TAF TAF EHLW
Valido dal 23 a 17 ore il 24 a 05 ore UTC


231651Z 2317/2405 01006KT CAVOK
BECMG 2318/2321 08005KT
Nessun NOTAM noto per questo aeroporto.



MetMap, La meteo Aeronautica in un colpo d'occhio ! - Copyright ORBIFLY Dicembre 2007 - Disclaimer

ORBIFLY MET'MAP TEAM :

Programmazione e sviluppo : Alexandra Zaïnal
Concezione e sviluppo : Baudouin d'Aumeries
Co-Programmazione e sviluppo : Marc-Olivier Méhu
Supporto tecnico e logistico : Manuel Goepfert
Aiuto per la traduzione : Arnaldo La Scala

Contatto : metmap@orbifly.com




FONTI E CREDITI :

   NOAA